createdAt,value
2024-03-03T00:00:47.916Z,9.58
2024-03-03T00:05:17.839Z,9.61
2024-03-03T00:09:25.868Z,9.63
2024-03-03T00:13:34.220Z,9.64
2024-03-03T00:17:42.619Z,9.64
2024-03-03T00:21:50.846Z,9.67
2024-03-03T00:25:58.523Z,9.71
2024-03-03T00:30:06.550Z,9.74
2024-03-03T00:34:14.645Z,9.74
2024-03-03T00:38:22.716Z,9.69
2024-03-03T00:42:30.847Z,9.66
2024-03-03T00:46:39.094Z,9.65
2024-03-03T00:50:47.183Z,9.66
2024-03-03T00:54:55.174Z,9.65
2024-03-03T00:59:03.428Z,9.61
2024-03-03T01:03:11.249Z,9.58
2024-03-03T01:07:19.227Z,9.55
2024-03-03T01:11:28.066Z,9.55
2024-03-03T01:15:35.750Z,9.58
2024-03-03T01:19:43.764Z,9.64
2024-03-03T01:23:52.622Z,9.71
2024-03-03T01:28:00.365Z,9.74
2024-03-03T01:32:10.149Z,9.73
2024-03-03T01:36:17.906Z,9.72
2024-03-03T01:40:26.912Z,9.68
2024-03-03T01:44:35.216Z,9.68
2024-03-03T01:48:43.863Z,9.69
2024-03-03T01:52:52.727Z,9.67
2024-03-03T01:57:02.030Z,9.61
2024-03-03T02:01:10.699Z,9.58
2024-03-03T02:05:19.218Z,9.57
2024-03-03T02:09:28.079Z,9.53
2024-03-03T02:13:35.895Z,9.47
2024-03-03T02:17:44.085Z,9.37
2024-03-03T02:21:51.576Z,9.26
2024-03-03T02:25:59.792Z,9.17
2024-03-03T02:30:09.524Z,9.12
2024-03-03T02:34:17.256Z,9.04
2024-03-03T02:38:25.548Z,8.97
2024-03-03T02:42:36.359Z,8.90
2024-03-03T02:46:44.683Z,8.83
2024-03-03T02:50:52.860Z,8.78
2024-03-03T02:55:00.640Z,8.69
2024-03-03T02:59:08.736Z,8.67
2024-03-03T03:03:17.759Z,8.62
2024-03-03T03:07:26.009Z,8.56
2024-03-03T03:11:34.428Z,8.45
2024-03-03T03:15:42.409Z,8.38
2024-03-03T03:19:50.996Z,8.30
2024-03-03T03:23:58.858Z,8.21
2024-03-03T03:28:08.519Z,8.13
2024-03-03T03:32:16.083Z,8.04
2024-03-03T03:36:23.737Z,8.02
2024-03-03T03:40:41.341Z,8.01
2024-03-03T03:44:49.360Z,8.01
2024-03-03T03:48:57.146Z,8.02
2024-03-03T03:53:04.763Z,8.00
2024-03-03T03:57:12.954Z,7.97
2024-03-03T04:01:22.798Z,7.96
2024-03-03T04:05:31.020Z,7.95
2024-03-03T04:09:38.811Z,7.87
2024-03-03T04:13:47.457Z,7.79
2024-03-03T04:17:55.402Z,7.72
2024-03-03T04:22:02.946Z,7.73
2024-03-03T04:26:11.870Z,7.76
2024-03-03T04:30:19.820Z,7.74
2024-03-03T04:34:30.918Z,7.71
2024-03-03T04:38:41.690Z,7.65
2024-03-03T04:42:50.867Z,7.62
2024-03-03T04:46:58.817Z,7.60
2024-03-03T04:51:07.815Z,7.55
2024-03-03T04:55:16.164Z,7.50
2024-03-03T04:59:24.176Z,7.43
2024-03-03T05:03:32.887Z,7.39
2024-03-03T05:07:40.793Z,7.38
2024-03-03T05:11:48.595Z,7.39
2024-03-03T05:15:56.439Z,7.40
2024-03-03T05:20:04.091Z,7.38
2024-03-03T05:24:11.954Z,7.31
2024-03-03T05:28:19.394Z,7.26
2024-03-03T05:32:27.087Z,7.21
2024-03-03T05:36:38.276Z,7.14
2024-03-03T05:40:46.237Z,7.08
2024-03-03T05:44:54.675Z,7.01
2024-03-03T05:49:03.780Z,7.01
2024-03-03T05:53:11.620Z,7.06
2024-03-03T05:57:19.157Z,7.12
2024-03-03T06:01:26.450Z,7.16
2024-03-03T06:05:34.695Z,7.19
2024-03-03T06:09:43.405Z,7.22
2024-03-03T06:13:51.371Z,7.31
2024-03-03T06:17:59.011Z,7.40
2024-03-03T06:22:09.960Z,7.45
2024-03-03T06:26:20.629Z,7.47
2024-03-03T06:30:30.925Z,7.48
2024-03-03T06:34:39.719Z,7.50
2024-03-03T06:38:47.165Z,7.59
2024-03-03T06:42:56.598Z,7.73
2024-03-03T06:47:04.227Z,7.87
2024-03-03T06:51:12.710Z,8.00
2024-03-03T06:55:20.682Z,8.07
2024-03-03T06:59:28.744Z,8.13
2024-03-03T07:04:09.488Z,8.25
2024-03-03T07:08:17.657Z,8.39
2024-03-03T07:12:25.320Z,8.48
2024-03-03T07:16:33.949Z,8.48
2024-03-03T07:20:41.944Z,8.44
2024-03-03T07:24:50.696Z,8.40
2024-03-03T07:28:58.324Z,8.44
2024-03-03T07:33:06.858Z,8.51
2024-03-03T07:37:14.776Z,8.61
2024-03-03T07:41:23.278Z,8.68
2024-03-03T07:45:30.842Z,8.73
2024-03-03T07:49:38.945Z,8.77
2024-03-03T07:53:50.586Z,8.81
2024-03-03T07:57:58.809Z,8.88
2024-03-03T08:02:07.909Z,8.98
2024-03-03T08:06:16.016Z,9.08
2024-03-03T08:10:23.984Z,9.12
2024-03-03T08:14:31.732Z,9.15
2024-03-03T08:18:39.551Z,9.20
2024-03-03T08:22:47.324Z,9.31
2024-03-03T08:26:54.873Z,9.46
2024-03-03T08:31:03.042Z,9.67
2024-03-03T08:35:12.066Z,9.75
2024-03-03T08:39:21.467Z,9.83
2024-03-03T08:43:29.546Z,9.95
2024-03-03T08:47:37.945Z,10.13
2024-03-03T08:51:47.070Z,10.31
2024-03-03T08:55:55.503Z,10.43
2024-03-03T09:00:04.631Z,10.55
2024-03-03T09:04:14.099Z,10.67
2024-03-03T09:08:21.620Z,10.86
2024-03-03T09:12:30.261Z,11.00
2024-03-03T09:16:39.201Z,11.16
2024-03-03T09:20:46.815Z,11.36
2024-03-03T09:24:54.809Z,11.52
2024-03-03T09:29:03.236Z,11.70
2024-03-03T09:33:12.195Z,11.95
2024-03-03T09:37:20.767Z,12.18
2024-03-03T09:41:28.571Z,12.28
2024-03-03T09:45:36.199Z,12.32
2024-03-03T09:49:45.548Z,12.32
2024-03-03T09:53:52.960Z,12.35
2024-03-03T09:58:02.406Z,12.38
2024-03-03T10:02:16.668Z,12.37
2024-03-03T10:06:26.149Z,12.37
2024-03-03T10:10:37.540Z,12.40
2024-03-03T10:14:46.082Z,12.46
2024-03-03T10:19:11.294Z,12.59
2024-03-03T10:23:25.973Z,12.74
2024-03-03T10:27:33.561Z,12.81
2024-03-03T10:31:41.286Z,12.84
2024-03-03T10:35:50.206Z,12.87
2024-03-03T10:39:58.584Z,12.93
2024-03-03T10:44:07.293Z,12.96
2024-03-03T10:48:14.812Z,13.04
2024-03-03T10:52:22.213Z,13.09
2024-03-03T10:56:30.511Z,13.16
2024-03-03T11:00:38.865Z,13.24
2024-03-03T11:04:47.132Z,13.28
2024-03-03T11:08:54.642Z,13.35
2024-03-03T11:13:05.267Z,13.52
2024-03-03T11:17:17.544Z,13.73
2024-03-03T11:21:31.209Z,13.94
2024-03-03T11:25:45.612Z,14.04
2024-03-03T11:29:53.973Z,14.11
2024-03-03T11:34:04.141Z,14.18
2024-03-03T11:38:13.637Z,14.30
2024-03-03T11:42:30.799Z,14.34
2024-03-03T11:46:51.395Z,14.35
2024-03-03T11:51:28.585Z,14.36
2024-03-03T11:55:39.741Z,14.42
2024-03-03T11:59:49.277Z,14.50
2024-03-03T12:03:57.999Z,14.52
2024-03-03T12:08:09.832Z,14.51
2024-03-03T12:12:17.472Z,14.53
2024-03-03T12:16:34.759Z,14.54
2024-03-03T12:20:45.526Z,14.45
2024-03-03T12:25:00.757Z,14.34
2024-03-03T12:29:10.465Z,14.30
2024-03-03T12:33:19.973Z,14.40
2024-03-03T12:37:29.903Z,14.64
2024-03-03T12:41:37.508Z,14.76
2024-03-03T12:45:48.425Z,14.83
2024-03-03T12:49:56.565Z,14.93
2024-03-03T12:54:05.507Z,14.93
2024-03-03T12:58:14.501Z,14.85
2024-03-03T13:02:22.108Z,14.78
2024-03-03T13:06:31.612Z,14.74
2024-03-03T13:10:40.747Z,14.68
2024-03-03T13:14:53.214Z,14.63
2024-03-03T13:19:05.703Z,14.61
2024-03-03T13:23:16.255Z,14.57
2024-03-03T13:27:23.597Z,14.54
2024-03-03T13:31:31.025Z,14.56
2024-03-03T13:35:40.099Z,14.63
2024-03-03T13:39:47.932Z,14.71
2024-03-03T13:43:55.705Z,14.77
2024-03-03T13:48:06.865Z,14.81
2024-03-03T13:52:15.349Z,14.81
2024-03-03T13:56:23.059Z,14.82
2024-03-03T14:00:31.166Z,14.86
2024-03-03T14:04:38.932Z,14.82
2024-03-03T14:08:47.301Z,14.81
2024-03-03T14:12:55.406Z,14.77
2024-03-03T14:17:03.563Z,14.75
2024-03-03T14:21:11.715Z,14.72
2024-03-03T14:25:19.908Z,14.70
2024-03-03T14:29:27.602Z,14.69
2024-03-03T14:33:35.736Z,14.67
2024-03-03T14:37:43.198Z,14.66
2024-03-03T14:41:51.397Z,14.66
2024-03-03T14:45:59.962Z,14.65
2024-03-03T14:50:10.338Z,14.59
2024-03-03T14:54:18.439Z,14.53
2024-03-03T14:58:26.488Z,14.49
2024-03-03T15:02:34.106Z,14.44
2024-03-03T15:06:41.944Z,14.41
2024-03-03T15:10:50.004Z,14.36
2024-03-03T15:14:59.333Z,14.33
2024-03-03T15:19:07.755Z,14.29
2024-03-03T15:23:15.809Z,14.25
2024-03-03T15:27:23.981Z,14.19
2024-03-03T15:31:32.086Z,14.20
2024-03-03T15:35:40.070Z,14.19
2024-03-03T15:39:47.853Z,14.16
2024-03-03T15:43:55.852Z,14.12
2024-03-03T15:48:05.457Z,14.07
2024-03-03T15:52:15.764Z,14.01
2024-03-03T15:56:23.811Z,13.95
2024-03-03T16:00:31.914Z,13.87
2024-03-03T16:04:39.682Z,13.80
2024-03-03T16:08:47.440Z,13.73
2024-03-03T16:12:55.439Z,13.69
2024-03-03T16:17:05.079Z,13.64
2024-03-03T16:21:13.080Z,13.58
2024-03-03T16:25:20.642Z,13.51
2024-03-03T16:29:28.460Z,13.44
2024-03-03T16:33:36.118Z,13.36
2024-03-03T16:37:44.436Z,13.29
2024-03-03T16:41:53.473Z,13.22
2024-03-03T16:46:01.637Z,13.20
2024-03-03T16:50:10.942Z,13.20
2024-03-03T16:54:20.123Z,13.20
2024-03-03T16:58:28.390Z,13.17
2024-03-03T17:02:36.277Z,13.13
2024-03-03T17:06:47.085Z,13.08
2024-03-03T17:10:55.478Z,13.02
2024-03-03T17:15:10.894Z,12.97
2024-03-03T17:24:01.228Z,12.86
2024-03-03T17:28:09.739Z,12.83
2024-03-03T17:32:17.545Z,12.87
2024-03-03T17:36:26.393Z,12.88
2024-03-03T17:40:35.221Z,12.85
2024-03-03T17:44:43.275Z,12.82
2024-03-03T17:48:51.367Z,12.76
2024-03-03T17:52:59.045Z,12.70
2024-03-03T17:57:07.622Z,12.61
2024-03-03T18:01:15.421Z,12.51
2024-03-03T18:05:24.973Z,12.40
2024-03-03T18:09:33.816Z,12.30
2024-03-03T18:13:41.871Z,12.18
2024-03-03T18:17:49.961Z,12.12
2024-03-03T18:21:58.262Z,12.08
2024-03-03T18:26:06.865Z,12.03
2024-03-03T18:30:17.234Z,11.94
2024-03-03T18:34:25.164Z,11.87
2024-03-03T18:38:33.510Z,11.80
2024-03-03T18:42:47.141Z,11.75
2024-03-03T18:46:57.300Z,11.68
2024-03-03T18:51:06.839Z,11.56
2024-03-03T18:55:15.420Z,11.53
2024-03-03T18:59:23.976Z,11.53
2024-03-03T19:03:31.658Z,11.55
2024-03-03T19:07:40.475Z,11.57
2024-03-03T19:11:48.508Z,11.54
2024-03-03T19:15:57.126Z,11.49
2024-03-03T19:20:05.673Z,11.42
2024-03-03T19:24:13.737Z,11.38
2024-03-03T19:28:23.952Z,11.36
2024-03-03T19:32:33.198Z,11.31
2024-03-03T19:36:41.004Z,11.25
2024-03-03T19:40:51.174Z,11.20
2024-03-03T19:44:59.430Z,11.12
2024-03-03T19:49:08.222Z,11.04
2024-03-03T19:53:15.945Z,11.01
2024-03-03T19:57:23.637Z,11.02
2024-03-03T20:01:31.624Z,11.06
2024-03-03T20:05:39.961Z,11.10
2024-03-03T20:09:48.926Z,11.11
2024-03-03T20:13:57.083Z,11.11
2024-03-03T20:18:05.717Z,11.10
2024-03-03T20:22:13.491Z,11.06
2024-03-03T20:26:21.544Z,11.06
2024-03-03T20:30:29.466Z,11.07
2024-03-03T20:34:37.257Z,11.05
2024-03-03T20:38:48.814Z,11.02
2024-03-03T20:42:56.750Z,10.98
2024-03-03T20:47:05.077Z,10.93
2024-03-03T20:51:15.529Z,10.92
2024-03-03T20:55:23.807Z,10.94
2024-03-03T20:59:32.049Z,10.96
2024-03-03T21:03:40.525Z,10.96
2024-03-03T21:07:49.161Z,10.94
2024-03-03T21:11:57.030Z,10.90
2024-03-03T21:16:05.719Z,10.86
2024-03-03T21:20:15.160Z,10.81
2024-03-03T21:24:23.006Z,10.80
2024-03-03T21:28:31.502Z,10.81
2024-03-03T21:32:39.161Z,10.81
2024-03-03T21:36:47.116Z,10.77
2024-03-03T21:40:54.690Z,10.73
2024-03-03T21:45:02.845Z,10.68
2024-03-03T21:49:10.664Z,10.68
2024-03-03T21:53:19.103Z,10.71
2024-03-03T21:57:26.338Z,10.72
2024-03-03T22:01:36.245Z,10.71
2024-03-03T22:05:44.927Z,10.69
2024-03-03T22:09:53.314Z,10.66
2024-03-03T22:14:00.912Z,10.64
2024-03-03T22:18:12.896Z,10.64
2024-03-03T22:22:21.407Z,10.68
2024-03-03T22:26:31.058Z,10.73
2024-03-03T22:30:39.769Z,10.77
2024-03-03T22:34:47.603Z,10.77
2024-03-03T22:38:55.661Z,10.75
2024-03-03T22:43:03.742Z,10.71
2024-03-03T22:47:11.830Z,10.66
2024-03-03T22:51:20.370Z,10.57
2024-03-03T22:55:28.832Z,10.50
2024-03-03T22:59:37.256Z,10.48
2024-03-03T23:03:48.289Z,10.43
2024-03-03T23:07:56.630Z,10.38
2024-03-03T23:12:05.393Z,10.29
2024-03-03T23:16:13.207Z,10.19
2024-03-03T23:20:21.450Z,10.10
2024-03-03T23:24:29.581Z,10.06
2024-03-03T23:28:39.732Z,10.01
2024-03-03T23:32:48.118Z,9.94
2024-03-03T23:36:56.423Z,9.87
2024-03-03T23:41:04.373Z,9.78
2024-03-03T23:45:13.816Z,9.71
2024-03-03T23:49:21.875Z,9.66
2024-03-03T23:53:30.723Z,9.60
2024-03-03T23:57:39.638Z,9.53
